Time;durP1;ratioP1;P1;durP2;ratioP2;P2;SDS_P1;SDS_P2;PMS_P1;PMS_P2;Temp;Humidity;BMP_temperature;BMP_pressure;BME280_temperature;BME280_humidity;BME280_pressure;Samples;Min_cycle;Max_cycle;Signal;HPM_P1;HPM_P2
2023/06/15 00:02:27;;;;;;;9.10;7.20;;;;;;;17.56;71.17;99333.19;107519;1253;60429;-40
2023/06/15 00:04:55;;;;;;;10.20;7.20;;;;;;;17.52;71.23;99335.67;107485;1254;73874;-39
2023/06/15 00:07:23;;;;;;;12.70;6.40;;;;;;;17.50;71.48;99335.46;107498;1253;66450;-39
2023/06/15 00:09:51;;;;;;;9.80;6.40;;;;;;;17.52;71.50;99337.70;107460;1253;72712;-39
2023/06/15 00:12:19;;;;;;;11.10;7.40;;;;;;;17.52;71.47;99336.92;107491;1254;60412;-39
2023/06/15 00:14:46;;;;;;;10.50;7.40;;;;;;;17.49;71.41;99334.91;107398;1259;59228;-39
2023/06/15 00:17:14;;;;;;;8.90;7.60;;;;;;;17.39;71.59;99334.69;107356;1254;72582;-39
2023/06/15 00:19:44;;;;;;;11.50;7.50;;;;;;;17.34;71.93;99332.79;107486;1253;66619;-39
2023/06/15 00:22:15;;;;;;;17.20;7.30;;;;;;;17.34;71.91;99338.27;107362;1257;71432;-39
2023/06/15 00:24:42;;;;;;;13.40;7.50;;;;;;;17.36;71.81;99338.16;107483;1253;60429;-40
2023/06/15 00:27:10;;;;;;;10.10;7.00;;;;;;;17.37;71.88;99337.23;107501;1254;60485;-40
2023/06/15 00:29:38;;;;;;;9.10;6.60;;;;;;;17.35;71.86;99339.58;107518;1253;72680;-39
2023/06/15 00:32:07;;;;;;;10.00;7.50;;;;;;;17.34;71.75;99339.52;107386;1254;66323;-39
2023/06/15 00:34:34;;;;;;;12.10;8.40;;;;;;;17.30;71.61;99336.41;107503;1258;72977;-39
2023/06/15 00:37:02;;;;;;;9.00;7.40;;;;;;;17.25;71.73;99333.80;107374;1257;61694;-40
2023/06/15 00:39:31;;;;;;;10.80;7.30;;;;;;;17.24;71.73;99332.87;107380;1253;59569;-39
2023/06/15 00:41:59;;;;;;;14.30;7.40;;;;;;;17.25;71.81;99332.85;107482;1253;73801;-40
2023/06/15 00:44:27;;;;;;;9.90;8.00;;;;;;;17.24;71.96;99334.27;107443;1253;66307;-39
2023/06/15 00:46:55;;;;;;;12.10;7.70;;;;;;;17.22;72.15;99335.16;107459;1254;72805;-39
2023/06/15 00:49:24;;;;;;;8.80;7.30;;;;;;;17.20;72.34;99337.20;107399;1254;60409;-39
2023/06/15 00:51:51;;;;;;;8.20;6.70;;;;;;;17.16;72.49;99338.27;107344;1254;58779;-39
2023/06/15 00:54:21;;;;;;;9.10;6.40;;;;;;;17.17;72.66;99338.16;107465;1253;72665;-39
2023/06/15 00:56:50;;;;;;;12.40;7.00;;;;;;;17.22;72.43;99342.11;107407;1253;67748;-40
2023/06/15 00:59:18;;;;;;;10.70;7.70;;;;;;;17.23;72.43;99341.64;107333;1253;72650;-39
2023/06/15 01:01:54;;;;;;;9.00;7.20;;;;;;;17.21;72.35;99336.89;107470;1254;60523;-39
2023/06/15 01:04:26;;;;;;;9.80;7.50;;;;;;;17.18;72.17;99338.15;107495;1253;60492;-39
2023/06/15 01:06:56;;;;;;;10.10;6.80;;;;;;;17.15;72.05;99336.92;107549;1253;72821;-40
2023/06/15 01:09:25;;;;;;;10.00;6.40;;;;;;;17.16;71.90;99335.29;107423;1259;66619;-39
2023/06/15 01:11:54;;;;;;;9.80;6.40;;;;;;;17.17;71.66;99333.16;107479;1253;71427;-39
2023/06/15 01:14:27;;;;;;;12.20;6.80;;;;;;;17.15;71.60;99331.36;107500;1254;60404;-39
2023/06/15 01:17:00;;;;;;;10.70;7.10;;;;;;;17.10;71.69;99326.17;107464;1259;60296;-39
2023/06/15 01:19:54;;;;;;;10.70;7.60;;;;;;;17.07;71.79;99328.08;107467;1253;73871;-39
2023/06/15 01:22:49;;;;;;;12.20;7.10;;;;;;;17.04;71.97;99325.27;107491;1254;67580;-40
2023/06/15 01:25:17;;;;;;;9.00;7.30;;;;;;;17.04;72.05;99328.71;107252;1254;72749;-40
2023/06/15 01:27:49;;;;;;;11.20;7.60;;;;;;;17.04;72.16;99330.77;107613;1253;60376;-39
2023/06/15 01:30:17;;;;;;;10.00;7.80;;;;;;;17.02;72.48;99329.21;107651;1253;60555;-40
2023/06/15 01:32:45;;;;;;;10.00;8.10;;;;;;;16.99;72.47;99327.98;107501;1254;73853;-39
2023/06/15 01:35:12;;;;;;;10.10;7.40;;;;;;;16.96;72.74;99328.63;107478;1258;68330;-39
2023/06/15 01:37:41;;;;;;;10.30;8.40;;;;;;;16.95;72.64;99325.02;107493;1254;72674;-39
2023/06/15 01:40:10;;;;;;;10.50;7.70;;;;;;;16.97;72.62;99323.77;107599;1254;60523;-39
2023/06/15 01:42:38;;;;;;;12.40;8.50;;;;;;;16.94;72.73;99321.35;107538;1258;60370;-39
2023/06/15 01:45:07;;;;;;;9.50;7.70;;;;;;;16.92;72.91;99324.59;107664;1254;73897;-39
2023/06/15 01:47:35;;;;;;;10.50;7.80;;;;;;;16.88;73.16;99323.28;107388;1254;67593;-39
2023/06/15 01:50:03;;;;;;;12.00;6.80;;;;;;;16.86;73.32;99322.76;107367;1254;72684;-39
2023/06/15 01:52:30;;;;;;;11.20;7.10;;;;;;;16.85;73.38;99324.48;107619;1254;60405;-39
2023/06/15 01:54:58;;;;;;;10.50;7.20;;;;;;;16.88;73.39;99324.92;107527;1254;60293;-39
2023/06/15 01:57:26;;;;;;;13.30;7.40;;;;;;;16.89;73.49;99326.16;107614;1254;73820;-39
2023/06/15 02:00:06;;;;;;;10.30;7.10;;;;;;;16.89;73.61;99322.34;107512;1258;66285;-40
2023/06/15 02:02:40;;;;;;;9.00;6.60;;;;;;;16.86;73.73;99318.61;107590;1258;72701;-39
2023/06/15 02:05:09;;;;;;;11.20;6.60;;;;;;;16.85;73.86;99321.27;107523;1254;60472;-40
2023/06/15 02:07:37;;;;;;;10.80;7.10;;;;;;;16.88;73.84;99318.35;107372;1258;59582;-39
2023/06/15 02:10:06;;;;;;;10.60;7.30;;;;;;;16.93;73.68;99317.69;107518;1254;73828;-39
2023/06/15 02:12:34;;;;;;;10.10;6.90;;;;;;;16.94;73.37;99322.54;107408;1259;67901;-39
2023/06/15 02:15:02;;;;;;;13.40;8.10;;;;;;;16.92;73.40;99323.58;107368;1257;72695;-40
2023/06/15 02:17:38;;;;;;;9.10;7.20;;;;;;;16.91;73.60;99325.53;107574;1254;60530;-40
2023/06/15 02:20:07;;;;;;;9.90;7.00;;;;;;;16.88;73.83;99322.90;107627;1258;60348;-39
2023/06/15 02:22:36;;;;;;;9.90;6.50;;;;;;;16.87;73.81;99321.66;107365;1254;73836;-40
2023/06/15 02:25:04;;;;;;;9.40;6.70;;;;;;;16.89;74.00;99320.39;107327;1259;66617;-40
2023/06/15 02:27:32;;;;;;;11.00;7.30;;;;;;;16.92;74.05;99321.77;107647;1254;72691;-39
2023/06/15 02:30:00;;;;;;;9.30;7.20;;;;;;;16.92;73.98;99319.74;107479;1254;60631;-40
2023/06/15 02:32:36;;;;;;;9.00;7.40;;;;;;;16.91;74.10;99319.66;107639;1254;60325;-39
2023/06/15 02:35:07;;;;;;;11.40;7.20;;;;;;;16.93;74.29;99321.14;107612;1254;73827;-39
2023/06/15 02:37:36;;;;;;;9.20;6.80;;;;;;;16.97;74.43;99321.27;107360;1259;67773;-39
2023/06/15 02:40:05;;;;;;;8.60;6.90;;;;;;;17.02;74.49;99323.73;107375;1257;70102;-39
2023/06/15 02:42:33;;;;;;;9.80;7.60;;;;;;;17.04;74.48;99326.70;107554;1253;60421;-40
2023/06/15 02:45:02;;;;;;;10.00;7.40;;;;;;;17.02;74.46;99323.27;107494;1254;60626;-39
2023/06/15 02:47:30;;;;;;;13.40;7.90;;;;;;;16.95;74.58;99322.05;107531;1259;72568;-39
2023/06/15 02:49:59;;;;;;;12.10;7.10;;;;;;;16.97;74.73;99321.52;107488;1254;66750;-39
2023/06/15 02:52:30;;;;;;;10.20;7.00;;;;;;;17.02;74.90;99319.98;107507;1256;71378;-39
2023/06/15 02:54:59;;;;;;;12.80;7.30;;;;;;;17.07;75.02;99323.70;107532;1254;60428;-39
2023/06/15 02:57:27;;;;;;;10.10;8.00;;;;;;;17.12;75.02;99323.81;107630;1254;60182;-39
2023/06/15 03:00:17;;;;;;;11.40;7.00;;;;;;;17.18;74.98;99320.54;107520;1253;72746;-39
2023/06/15 03:02:53;;;;;;;10.10;6.50;;;;;;;17.25;74.82;99318.70;107491;1254;66975;-38
2023/06/15 03:05:22;;;;;;;11.60;7.40;;;;;;;17.27;74.82;99318.67;107537;1254;71960;-39
2023/06/15 03:07:52;;;;;;;8.60;7.40;;;;;;;17.29;74.88;99315.36;107486;1254;60418;-39
2023/06/15 03:10:26;;;;;;;13.90;8.10;;;;;;;17.33;74.86;99314.16;107505;1254;60278;-40
2023/06/15 03:12:54;;;;;;;11.00;7.50;;;;;;;17.36;74.73;99317.34;107620;1254;73883;-40
2023/06/15 03:15:22;;;;;;;9.70;7.00;;;;;;;17.41;74.58;99315.88;107377;1259;66623;-39
2023/06/15 03:17:50;;;;;;;10.20;7.40;;;;;;;17.47;74.52;99320.36;107494;1258;71416;-39
2023/06/15 03:20:21;;;;;;;;;;;;;;;17.52;74.47;99322.59;107343;1254;59689;-40
2023/06/15 03:22:50;;;;;;;10.00;7.80;;;;;;;17.51;74.55;99326.28;107483;1255;60338;-39
2023/06/15 03:25:20;;;;;;;10.00;7.80;;;;;;;17.51;74.74;99323.15;107511;1255;73910;-39
2023/06/15 03:27:49;;;;;;;11.50;6.90;;;;;;;17.53;74.62;99319.13;107536;1254;66611;-39
2023/06/15 03:30:17;;;;;;;10.00;6.90;;;;;;;17.57;74.53;99320.52;107614;1257;72960;-39
2023/06/15 03:32:46;;;;;;;9.40;7.50;;;;;;;17.64;74.43;99321.79;107465;1259;60427;-39
2023/06/15 03:35:15;;;;;;;9.30;7.70;;;;;;;17.70;74.40;99321.66;107525;1258;60421;-39
2023/06/15 03:37:44;;;;;;;12.80;8.00;;;;;;;17.74;74.38;99321.92;107598;1256;73864;-39
2023/06/15 03:40:12;;;;;;;12.30;8.40;;;;;;;17.78;74.22;99324.15;107521;1254;66347;-39
2023/06/15 03:42:40;;;;;;;9.00;7.60;;;;;;;17.76;74.30;99324.48;107516;1254;72667;-39
2023/06/15 03:45:09;;;;;;;12.90;7.10;;;;;;;17.77;74.50;99324.23;107516;1255;60411;-40
2023/06/15 03:47:37;;;;;;;17.80;7.40;;;;;;;17.80;74.51;99325.47;107563;1259;59259;-39
2023/06/15 03:50:06;;;;;;;9.30;7.10;;;;;;;17.84;74.75;99323.08;107511;1258;73906;-39
2023/06/15 03:52:35;;;;;;;11.10;7.70;;;;;;;17.89;74.91;99323.11;107507;1258;66263;-39
2023/06/15 03:55:05;;;;;;;11.50;7.80;;;;;;;17.92;75.03;99324.63;107546;1254;72657;-40
2023/06/15 03:57:33;;;;;;;12.90;7.50;;;;;;;17.94;75.00;99323.11;107435;1259;60393;-39
2023/06/15 04:00:00;;;;;;;13.60;6.90;;;;;;;18.02;74.95;99324.75;107508;1254;60370;-39
2023/06/15 04:02:28;;;;;;;12.30;7.30;;;;;;;18.12;75.11;99324.47;107521;1254;72548;-40
2023/06/15 04:04:56;;;;;;;10.40;7.40;;;;;;;18.22;75.11;99323.16;107515;1254;66745;-39
2023/06/15 04:07:24;;;;;;;10.20;7.30;;;;;;;18.29;74.94;99321.50;107516;1254;71392;-39
2023/06/15 04:09:51;;;;;;;12.60;6.80;;;;;;;18.33;74.94;99320.42;107478;1259;61759;-39
2023/06/15 04:12:19;;;;;;;14.30;7.90;;;;;;;18.41;74.94;99319.39;107484;1260;60313;-39
2023/06/15 04:14:47;;;;;;;13.20;8.20;;;;;;;18.50;75.07;99321.85;107499;1254;73948;-40
2023/06/15 04:17:16;;;;;;;10.80;7.50;;;;;;;18.60;74.94;99319.63;107539;1254;65334;-39
2023/06/15 04:19:45;;;;;;;12.20;7.90;;;;;;;18.67;74.95;99321.64;107488;1259;70448;-39
2023/06/15 04:22:12;;;;;;;12.80;7.60;;;;;;;18.72;74.65;99319.14;107512;1255;60502;-39
2023/06/15 04:24:40;;;;;;;9.00;7.10;;;;;;;18.80;74.60;99322.63;107626;1254;59184;-39
2023/06/15 04:27:12;;;;;;;13.30;7.50;;;;;;;18.90;74.39;99324.20;107466;1254;73884;-39
2023/06/15 04:29:45;;;;;;;9.40;7.30;;;;;;;18.97;74.10;99322.59;107507;1254;66639;-39
2023/06/15 04:32:17;;;;;;;10.10;7.60;;;;;;;19.02;73.97;99319.45;107486;1254;71883;-40
2023/06/15 04:34:45;;;;;;;9.70;7.00;;;;;;;19.08;73.74;99320.77;107479;1259;60436;-39
2023/06/15 04:37:16;;;;;;;13.00;7.20;;;;;;;19.17;73.62;99317.95;107648;1254;60987;-39
2023/06/15 04:39:46;;;;;;;12.50;7.40;;;;;;;19.26;73.36;99313.10;107458;1255;73867;-40
2023/06/15 04:42:17;;;;;;;9.90;7.20;;;;;;;19.33;73.32;99317.30;107632;1256;66989;-39
2023/06/15 04:44:45;;;;;;;10.90;7.50;;;;;;;19.39;73.25;99319.39;107610;1254;71682;-39
2023/06/15 04:47:14;;;;;;;11.60;6.50;;;;;;;19.46;73.19;99321.33;107436;1254;60362;-39
2023/06/15 04:49:44;;;;;;;;;;;;;;;19.57;73.10;99320.98;107637;1256;60341;-39
2023/06/15 04:52:12;;;;;;;12.30;7.00;;;;;;;19.64;72.86;99320.15;107473;1254;73939;-39
2023/06/15 04:54:41;;;;;;;10.00;6.20;;;;;;;19.70;72.80;99321.39;107664;1254;67413;-40
2023/06/15 04:57:09;;;;;;;12.10;6.60;;;;;;;19.79;72.57;99317.91;107465;1255;71351;-39
2023/06/15 04:59:38;;;;;;;14.20;6.30;;;;;;;19.88;72.35;99321.02;107515;1259;60467;-39
2023/06/15 05:02:07;;;;;;;9.10;5.90;;;;;;;19.99;71.80;99322.95;107474;1254;61690;-40
2023/06/15 05:04:38;;;;;;;10.20;6.50;;;;;;;20.11;71.49;99321.82;107600;1254;73851;-39
2023/06/15 05:07:06;;;;;;;10.70;6.30;;;;;;;20.19;71.25;99322.60;107667;1254;69886;-39
2023/06/15 05:09:40;;;;;;;11.10;6.50;;;;;;;20.25;71.08;99321.38;107526;1259;71403;-39
2023/06/15 05:12:18;;;;;;;13.00;6.40;;;;;;;20.31;70.92;99320.23;107474;1256;60492;-39
2023/06/15 05:14:46;;;;;;;10.70;6.20;;;;;;;20.39;70.84;99315.68;107484;1254;60539;-38
2023/06/15 05:17:13;;;;;;;10.90;6.50;;;;;;;20.49;70.56;99317.91;107501;1260;72771;-38
2023/06/15 05:19:41;;;;;;;10.90;6.10;;;;;;;20.56;70.21;99318.47;107500;1254;67562;-39
2023/06/15 05:22:08;;;;;;;8.50;6.00;;;;;;;20.61;70.17;99317.57;107477;1255;71793;-39
2023/06/15 05:24:38;;;;;;;10.10;6.50;;;;;;;20.69;70.00;99320.77;107455;1253;60162;-40
2023/06/15 05:27:08;;;;;;;11.70;5.60;;;;;;;20.76;69.74;99323.27;107476;1260;60371;-39
2023/06/15 05:29:39;;;;;;;;;;;;;;;20.84;69.76;99324.58;107684;1257;73832;-39
2023/06/15 05:32:09;;;;;;;10.60;5.60;;;;;;;20.90;68.56;99319.58;107667;1257;66647;-40
2023/06/15 05:34:38;;;;;;;9.90;6.10;;;;;;;20.96;68.63;99319.83;107624;1256;72659;-39
2023/06/15 05:37:05;;;;;;;12.90;6.30;;;;;;;21.06;68.35;99320.92;107493;1254;60447;-39
2023/06/15 05:39:38;;;;;;;9.90;6.30;;;;;;;21.14;68.37;99321.05;107670;1256;59265;-39
2023/06/15 05:42:07;;;;;;;13.30;6.30;;;;;;;21.19;67.64;99318.87;107508;1254;72584;-39
2023/06/15 05:44:36;;;;;;;;;;;;;;;21.27;67.22;99322.31;107504;1259;67456;-39
2023/06/15 05:47:06;;;;;;;8.70;5.90;;;;;;;21.33;66.76;99320.61;107522;1254;71418;-39
2023/06/15 05:49:33;;;;;;;11.90;5.20;;;;;;;21.37;66.61;99317.80;107551;1255;60415;-39
2023/06/15 05:52:01;;;;;;;10.20;5.80;;;;;;;21.46;66.26;99320.58;107517;1259;60299;-39
2023/06/15 05:54:31;;;;;;;10.00;6.40;;;;;;;21.55;66.41;99323.02;107475;1259;73860;-39
2023/06/15 05:57:00;;;;;;;11.00;5.10;;;;;;;21.63;66.09;99323.36;107520;1254;67571;-39
2023/06/15 05:59:28;;;;;;;7.10;4.60;;;;;;;21.76;64.96;99319.23;107487;1255;72692;-39
2023/06/15 06:02:02;;;;;;;12.90;5.30;;;;;;;21.89;64.01;99325.98;107660;1254;59556;-40
2023/06/15 06:04:33;;;;;;;11.00;5.90;;;;;;;22.00;64.37;99326.80;107582;1254;60402;-39
2023/06/15 06:07:03;;;;;;;8.50;5.30;;;;;;;22.10;63.66;99328.65;107504;1259;72566;-39
2023/06/15 06:09:32;;;;;;;9.20;4.90;;;;;;;22.19;61.77;99330.84;107573;1259;66717;-39
2023/06/15 06:12:00;;;;;;;8.50;4.30;;;;;;;22.25;60.82;99329.85;107461;1254;72487;-39
2023/06/15 06:14:28;;;;;;;10.70;5.00;;;;;;;22.32;60.45;99330.07;107410;1261;60525;-39
2023/06/15 06:16:56;;;;;;;9.30;4.30;;;;;;;22.38;59.57;99330.98;107647;1254;59197;-40
2023/06/15 06:19:24;;;;;;;8.50;4.70;;;;;;;22.42;59.53;99333.14;107505;1254;73828;-40
2023/06/15 06:21:52;;;;;;;9.20;4.70;;;;;;;22.46;59.43;99337.45;107495;1254;67594;-40
2023/06/15 06:24:20;;;;;;;8.90;4.40;;;;;;;22.50;59.20;99334.32;107495;1258;72707;-39
2023/06/15 06:26:50;;;;;;;10.70;4.50;;;;;;;22.58;59.07;99335.05;107534;1254;60363;-40
2023/06/15 06:29:18;;;;;;;9.00;4.40;;;;;;;22.64;58.64;99334.16;107500;1253;60511;-39
2023/06/15 06:34:43;;;;;;;6.30;4.20;;;;;;;22.74;58.05;99331.33;104247;1295;601053;-38
2023/06/15 06:37:11;;;;;;;7.00;4.50;;;;;;;22.83;57.89;99334.76;106600;1270;60088;-39
2023/06/15 06:39:40;;;;;;;8.40;4.30;;;;;;;22.92;56.13;99335.20;106621;1267;60039;-39
2023/06/15 06:42:10;;;;;;;8.40;4.80;;;;;;;22.98;55.19;99333.58;106621;1272;72235;-40
2023/06/15 06:44:37;;;;;;;9.40;4.60;;;;;;;23.03;55.67;99334.13;106586;1267;66318;-39
2023/06/15 06:47:06;;;;;;;10.50;4.20;;;;;;;23.09;56.22;99333.23;106588;1267;72668;-39
2023/06/15 06:49:33;;;;;;;7.50;3.90;;;;;;;23.18;55.29;99333.64;106390;1264;430803;-39
2023/06/15 06:52:01;;;;;;;9.10;4.10;;;;;;;23.25;53.30;99328.28;106736;1263;60003;-40
2023/06/15 06:54:28;;;;;;;19.90;6.00;;;;;;;23.32;52.47;99327.15;106749;1263;70946;-39
2023/06/15 06:56:56;;;;;;;12.10;4.70;;;;;;;23.39;52.31;99328.04;106933;1260;67859;-39
2023/06/15 06:59:24;;;;;;;7.90;4.30;;;;;;;23.48;52.39;99328.89;106912;1261;72669;-39
2023/06/15 07:01:58;;;;;;;6.90;4.00;;;;;;;23.57;52.31;99324.28;106835;1261;60091;-39
2023/06/15 07:04:26;;;;;;;9.00;4.30;;;;;;;23.67;52.08;99327.98;107020;1260;60538;-40
2023/06/15 07:06:54;;;;;;;6.80;4.00;;;;;;;23.78;50.67;99325.13;107017;1260;73034;-40
2023/06/15 07:09:21;;;;;;;8.70;3.80;;;;;;;23.91;49.75;99324.37;107035;1260;66435;-40
2023/06/15 07:11:49;;;;;;;10.10;4.20;;;;;;;24.07;50.16;99326.94;106896;1265;72696;-39
2023/06/15 07:14:17;;;;;;;8.30;4.30;;;;;;;24.23;50.12;99321.06;106844;1261;59563;-40
2023/06/15 07:16:44;;;;;;;13.60;4.20;;;;;;;24.39;50.20;99321.02;107030;1260;60504;-40
2023/06/15 07:19:12;;;;;;;7.60;4.20;;;;;;;24.52;49.64;99318.06;106899;1260;73089;-40
2023/06/15 07:21:40;;;;;;;8.60;3.90;;;;;;;24.60;48.91;99314.84;106984;1260;67655;-39
2023/06/15 07:24:08;;;;;;;5.40;3.60;;;;;;;24.65;49.30;99313.84;107024;1263;72737;-39
2023/06/15 07:26:35;;;;;;;8.90;4.50;;;;;;;24.73;49.15;99312.36;107202;1257;59596;-40
2023/06/15 07:29:03;;;;;;;6.30;4.00;;;;;;;24.80;48.72;99315.63;107216;1257;60042;-40
2023/06/15 07:31:30;;;;;;;6.30;3.90;;;;;;;24.86;47.92;99310.09;107208;1257;72636;-40
2023/06/15 07:33:59;;;;;;;7.10;4.20;;;;;;;24.95;47.77;99309.42;107198;1257;67568;-40
2023/06/15 07:36:26;;;;;;;7.70;3.70;;;;;;;25.05;47.85;99307.54;107076;1257;72655;-39
2023/06/15 07:38:54;;;;;;;6.00;3.90;;;;;;;25.12;47.44;99305.48;107100;1258;60096;-40
2023/06/15 07:41:22;;;;;;;8.00;4.10;;;;;;;25.23;48.16;99303.34;107197;1258;60090;-40
2023/06/15 07:43:49;;;;;;;9.40;4.10;;;;;;;25.38;47.88;99300.49;107107;1257;73045;-39
2023/06/15 07:46:17;;;;;;;6.70;4.00;;;;;;;25.52;47.42;99306.59;107066;1257;66350;-40
2023/06/15 07:48:45;;;;;;;11.10;3.90;;;;;;;25.63;46.69;99306.77;107069;1257;71675;-40
2023/06/15 07:51:12;;;;;;;9.50;3.60;;;;;;;25.70;45.53;99305.05;107083;1259;59644;-39
2023/06/15 07:53:51;;;;;;;5.70;3.90;;;;;;;25.71;45.13;99300.48;107060;1262;59539;-40
2023/06/15 07:56:18;;;;;;;7.10;3.70;;;;;;;25.69;45.11;99300.73;107052;1263;70800;-40
2023/06/15 07:58:46;;;;;;;8.60;3.90;;;;;;;25.72;44.55;99295.91;107133;1257;66744;-40
2023/06/15 08:01:13;;;;;;;11.90;4.20;;;;;;;25.81;45.21;99298.12;107057;1258;72562;-39
2023/06/15 08:03:41;;;;;;;10.30;3.60;;;;;;;25.89;44.67;99301.64;107035;1259;60065;-39
2023/06/15 08:06:10;;;;;;;7.50;3.40;;;;;;;25.88;44.46;99302.23;107095;1257;60135;-40
2023/06/15 08:08:38;;;;;;;12.30;3.70;;;;;;;25.83;44.23;99299.61;107083;1257;71753;-40
2023/06/15 08:11:06;;;;;;;7.80;3.50;;;;;;;25.79;43.87;99302.98;107086;1257;67587;-40
2023/06/15 08:13:33;;;;;;;7.10;3.10;;;;;;;25.79;44.30;99303.80;107057;1257;72662;-40
2023/06/15 08:16:01;;;;;;;7.60;3.40;;;;;;;25.90;44.62;99296.27;107064;1257;60035;-40
2023/06/15 08:18:29;;;;;;;8.10;3.10;;;;;;;26.02;44.87;99295.81;107207;1257;60427;-40
2023/06/15 08:20:56;;;;;;;6.60;3.30;;;;;;;26.10;43.06;99300.30;107084;1263;73041;-40
2023/06/15 08:23:24;;;;;;;7.80;4.20;;;;;;;26.13;44.30;99299.13;107054;1257;67545;-40
2023/06/15 08:25:52;;;;;;;8.60;4.10;;;;;;;26.23;45.53;99299.80;107051;1257;72667;-40
2023/06/15 08:28:20;;;;;;;6.70;4.30;;;;;;;26.34;45.69;99298.42;107065;1257;60317;-40
2023/06/15 08:30:50;;;;;;;;;;;;;;;26.40;45.14;99297.92;107246;1257;59128;-40
2023/06/15 08:33:18;;;;;;;8.20;4.40;;;;;;;26.30;44.62;99299.80;107221;1262;71776;-40
2023/06/15 08:35:46;;;;;;;11.70;4.10;;;;;;;26.11;44.89;99301.27;107051;1258;67668;-40
2023/06/15 08:38:14;;;;;;;7.20;4.30;;;;;;;25.99;45.04;99300.94;107040;1260;71887;-40
2023/06/15 08:40:41;;;;;;;7.10;4.00;;;;;;;25.88;45.69;99300.25;107212;1257;59624;-40
2023/06/15 08:43:09;;;;;;;8.10;4.10;;;;;;;25.82;45.95;99297.29;107051;1257;60059;-39
2023/06/15 08:45:40;;;;;;;10.70;4.40;;;;;;;25.77;45.90;99300.90;107044;1257;73077;-40
2023/06/15 08:48:10;;;;;;;7.00;4.20;;;;;;;25.67;45.73;99299.46;107097;1257;67898;-39
2023/06/15 08:50:38;;;;;;;;;;;;;;;25.52;46.27;99305.54;107070;1265;72715;-39
2023/06/15 08:53:06;;;;;;;7.60;4.40;;;;;;;25.36;46.81;99306.14;107273;1259;59710;-40
2023/06/15 08:55:35;;;;;;;7.20;4.20;;;;;;;25.22;46.96;99304.42;107076;1257;60161;-40
2023/06/15 08:58:05;;;;;;;10.00;4.40;;;;;;;25.13;46.99;99300.05;107052;1263;73081;-40
2023/06/15 09:00:37;;;;;;;9.70;4.40;;;;;;;25.03;47.18;99302.59;107052;1257;68049;-40
2023/06/15 09:03:07;;;;;;;8.20;4.40;;;;;;;24.93;47.86;99299.15;107061;1257;72661;-40
2023/06/15 09:05:36;;;;;;;6.90;3.80;;;;;;;24.87;48.41;99298.83;107136;1257;59754;-40
2023/06/15 09:08:05;;;;;;;8.70;3.40;;;;;;;24.90;48.17;99297.80;107049;1257;59225;-40
2023/06/15 09:10:36;;;;;;;4.70;4.10;;;;;;;24.99;47.72;99294.98;107062;1257;73038;-40
2023/06/15 09:13:03;;;;;;;8.40;3.70;;;;;;;25.12;47.89;99290.88;107036;1262;67585;-40
2023/06/15 09:15:31;;;;;;;6.60;3.60;;;;;;;25.24;47.34;99286.75;107055;1257;72759;-40
2023/06/15 09:18:00;;;;;;;7.50;3.30;;;;;;;25.31;45.63;99290.71;107033;1261;59609;-40
2023/06/15 09:20:36;;;;;;;6.40;3.30;;;;;;;25.34;44.19;99288.13;107094;1257;59468;-40
2023/06/15 09:23:05;;;;;;;9.70;3.40;;;;;;;25.36;43.77;99285.36;107091;1257;71805;-40
2023/06/15 09:25:36;;;;;;;7.10;3.50;;;;;;;25.38;43.27;99287.73;107051;1257;68626;-40
2023/06/15 09:28:07;;;;;;;8.80;3.10;;;;;;;25.41;43.79;99285.64;107040;1257;71540;-40
2023/06/15 09:30:39;;;;;;;6.30;3.40;;;;;;;25.44;43.63;99287.71;107013;1257;60056;-40
2023/06/15 09:33:13;;;;;;;4.80;3.00;;;;;;;25.47;43.53;99287.83;107088;1258;59567;-40
2023/06/15 09:36:00;;;;;;;12.60;3.60;;;;;;;25.49;43.57;99286.94;107051;1261;72887;-40
2023/06/15 09:38:48;;;;;;;7.30;3.50;;;;;;;25.53;43.79;99289.73;106997;1257;66440;-40
2023/06/15 09:41:15;;;;;;;8.80;3.70;;;;;;;25.53;43.72;99292.41;107237;1261;71857;-40
2023/06/15 09:43:43;;;;;;;6.10;3.30;;;;;;;25.47;44.03;99290.75;106994;1260;60051;-40
2023/06/15 09:46:19;;;;;;;6.20;3.60;;;;;;;25.41;44.28;99290.91;107048;1257;60572;-40
2023/06/15 09:48:47;;;;;;;5.30;3.40;;;;;;;25.36;44.66;99293.13;107287;1263;73037;-40
2023/06/15 09:51:18;;;;;;;6.10;3.60;;;;;;;25.31;44.39;99292.65;107260;1263;67584;-40
2023/06/15 09:53:47;;;;;;;6.10;3.50;;;;;;;25.23;44.35;99292.80;107056;1257;72754;-40
2023/06/15 09:56:14;;;;;;;10.60;3.50;;;;;;;25.14;44.39;99290.16;107211;1258;60162;-40
2023/06/15 09:58:48;;;;;;;6.00;3.60;;;;;;;25.06;44.77;99294.54;107216;1257;61084;-40
2023/06/15 10:01:17;;;;;;;5.10;3.50;;;;;;;25.00;45.27;99298.19;107186;1263;71740;-40
2023/06/15 10:03:52;;;;;;;6.60;3.80;;;;;;;24.98;44.95;99295.44;107242;1257;67617;-40
2023/06/15 10:06:20;;;;;;;7.40;3.50;;;;;;;24.98;44.98;99299.77;107257;1262;73131;-40
2023/06/15 10:08:51;;;;;;;6.60;3.60;;;;;;;24.97;45.07;99295.16;107225;1258;60093;-40
2023/06/15 10:11:20;;;;;;;7.30;4.20;;;;;;;24.99;45.32;99296.05;107211;1257;59483;-40
2023/06/15 10:14:20;;;;;;;11.90;4.20;;;;;;;25.01;45.50;99294.05;107209;1257;73111;-40
2023/06/15 10:16:58;;;;;;;9.00;4.20;;;;;;;25.04;45.12;99295.90;106963;1263;68157;-41
2023/06/15 10:19:26;;;;;;;6.30;3.80;;;;;;;25.04;44.78;99291.13;107205;1258;72689;-40
2023/06/15 10:21:54;;;;;;;7.50;4.40;;;;;;;25.06;44.63;99290.89;107209;1257;60111;-40
2023/06/15 10:24:23;;;;;;;10.30;3.90;;;;;;;25.12;44.76;99285.04;107158;1257;59663;-40
2023/06/15 10:26:51;;;;;;;9.10;4.20;;;;;;;25.17;44.70;99286.50;107246;1257;73538;-40
2023/06/15 10:29:25;;;;;;;10.00;4.20;;;;;;;25.22;44.21;99289.19;107306;1262;67569;-40
2023/06/15 10:32:37;;;;;;;10.80;3.80;;;;;;;25.26;44.29;99293.39;107238;1257;72693;-40
2023/06/15 10:35:12;;;;;;;7.80;4.40;;;;;;;25.30;44.50;99293.00;107208;1257;59638;-40
2023/06/15 10:37:51;;;;;;;8.90;3.70;;;;;;;25.31;44.78;99294.69;107258;1257;59523;-40
2023/06/15 10:40:28;;;;;;;9.90;4.40;;;;;;;25.33;44.76;99293.74;107235;1257;73063;-40
2023/06/15 10:42:56;;;;;;;9.40;3.80;;;;;;;25.33;45.14;99295.34;107246;1256;66455;-40
2023/06/15 10:45:32;;;;;;;6.20;3.90;;;;;;;25.31;45.07;99294.64;107224;1262;71413;-40
2023/06/15 10:48:01;;;;;;;6.80;4.00;;;;;;;25.30;45.24;99294.20;107260;1259;60295;-40
2023/06/15 10:50:39;;;;;;;8.20;3.70;;;;;;;25.32;45.66;99291.42;107276;1258;60435;-40
2023/06/15 10:53:26;;;;;;;9.20;3.70;;;;;;;25.36;45.98;99292.88;107238;1263;72647;-40
2023/06/15 10:55:58;;;;;;;6.20;3.70;;;;;;;25.41;45.34;99290.35;107221;1262;66428;-40
2023/06/15 10:58:26;;;;;;;6.50;4.00;;;;;;;25.45;44.97;99291.55;107185;1258;70909;-40
2023/06/15 11:01:08;;;;;;;7.30;3.70;;;;;;;25.48;45.62;99292.00;107080;1266;60551;-40
2023/06/15 11:03:39;;;;;;;5.70;3.80;;;;;;;25.52;45.84;99295.08;107204;1260;60458;-41
2023/06/15 11:06:08;;;;;;;6.20;3.70;;;;;;;25.55;44.84;99296.30;107195;1257;74174;-40
2023/06/15 11:08:47;;;;;;;8.10;3.50;;;;;;;25.58;44.87;99298.36;107121;1263;67584;-40
2023/06/15 11:11:18;;;;;;;7.60;3.50;;;;;;;25.64;44.93;99296.10;107211;1261;72087;-40
2023/06/15 11:14:05;;;;;;;7.40;4.30;;;;;;;25.69;45.15;99299.84;107209;1261;60536;-40
2023/06/15 11:16:34;;;;;;;6.70;4.10;;;;;;;25.76;44.80;99303.34;107230;1263;60421;-40
2023/06/15 11:19:11;;;;;;;5.30;3.50;;;;;;;25.81;44.61;99301.67;107167;1263;73917;-40
2023/06/15 11:21:48;;;;;;;9.60;4.00;;;;;;;25.89;43.97;99296.79;107190;1257;66174;-40
2023/06/15 11:24:16;;;;;;;6.90;3.90;;;;;;;25.96;43.00;99294.66;107015;1263;71940;-40
2023/06/15 11:26:44;;;;;;;6.60;3.60;;;;;;;26.05;42.90;99295.13;107208;1257;60855;-41
2023/06/15 11:29:12;;;;;;;9.80;4.00;;;;;;;26.12;42.39;99290.27;107236;1260;60367;-40
2023/06/15 11:31:41;;;;;;;7.60;3.60;;;;;;;26.19;42.34;99296.08;107059;1257;73858;-40
2023/06/15 11:34:10;;;;;;;5.80;3.30;;;;;;;26.24;42.25;99293.33;107237;1257;66607;-41
2023/06/15 11:36:38;;;;;;;8.10;4.10;;;;;;;26.27;42.97;99291.21;107284;1262;72665;-40
2023/06/15 11:39:05;;;;;;;8.70;3.80;;;;;;;26.32;43.35;99291.52;107225;1261;60347;-40